createdAt,value
2019-04-20T00:01:50.520Z,14.90
2019-04-20T00:04:26.978Z,14.80
2019-04-20T00:06:56.045Z,14.80
2019-04-20T00:49:43.226Z,14.90
2019-04-20T00:52:23.943Z,14.70
2019-04-20T00:54:30.537Z,14.70
2019-04-20T01:16:07.618Z,13.90
2019-04-20T01:18:33.267Z,13.80
2019-04-20T01:21:10.381Z,13.80
2019-04-20T01:23:43.820Z,13.90
2019-04-20T02:08:31.098Z,13.40
2019-04-20T02:22:37.882Z,13.20
2019-04-20T02:24:50.932Z,13.10
2019-04-20T02:27:31.276Z,13.10
2019-04-20T02:30:55.727Z,13.20
2019-04-20T02:33:43.166Z,13.10
2019-04-20T02:47:40.367Z,12.80
2019-04-20T02:57:03.243Z,12.40
2019-04-20T02:59:59.667Z,12.30
2019-04-20T03:02:17.031Z,12.50
2019-04-20T03:04:45.254Z,12.30
2019-04-20T03:07:19.670Z,12.10
2019-04-20T03:10:03.229Z,12.00
2019-04-20T03:12:44.948Z,12.20
2019-04-20T03:15:00.670Z,11.90
2019-04-20T03:17:39.775Z,12.00
2019-04-20T03:20:03.300Z,12.10
2019-04-20T03:23:05.440Z,12.10
2019-04-20T03:25:19.826Z,12.00
2019-04-20T03:28:07.007Z,12.00
2019-04-20T03:31:26.878Z,12.20
2019-04-20T03:33:51.548Z,12.20
2019-04-20T03:36:12.225Z,12.00
2019-04-20T03:38:36.090Z,12.20
2019-04-20T03:41:04.818Z,12.30
2019-04-20T03:43:24.702Z,12.40
2019-04-20T03:46:02.561Z,12.10
2019-04-20T03:48:41.531Z,12.30
2019-04-20T03:51:28.030Z,12.30
2019-04-20T03:54:20.194Z,12.40
2019-04-20T03:57:12.483Z,12.40
2019-04-20T03:59:50.866Z,12.40
2019-04-20T04:02:57.691Z,11.90
2019-04-20T04:06:12.349Z,12.10
2019-04-20T04:20:33.003Z,11.70
2019-04-20T04:23:32.662Z,11.70
2019-04-20T04:26:26.182Z,11.80
2019-04-20T04:33:32.710Z,11.60
2019-04-20T04:35:48.199Z,11.40
2019-04-20T04:52:47.820Z,11.50
2019-04-20T04:58:52.100Z,11.90
2019-04-20T05:11:17.297Z,11.70
2019-04-20T05:14:05.199Z,11.60
2019-04-20T05:17:52.736Z,11.70
2019-04-20T05:28:09.614Z,12.00
2019-04-20T05:31:46.618Z,12.00
2019-04-20T05:38:12.127Z,12.30
2019-04-20T05:41:07.071Z,12.10
2019-04-20T05:47:55.429Z,11.60
2019-04-20T05:50:43.536Z,11.80
2019-04-20T06:00:08.383Z,11.90
2019-04-20T06:02:56.143Z,12.00
2019-04-20T06:05:28.992Z,12.20
2019-04-20T06:08:05.348Z,12.40
2019-04-20T06:11:19.306Z,12.50
2019-04-20T06:14:05.008Z,12.60
2019-04-20T06:21:08.215Z,12.90
2019-04-20T06:27:52.544Z,13.10
2019-04-20T06:30:45.202Z,13.40
2019-04-20T06:37:09.861Z,13.40
2019-04-20T06:39:42.666Z,13.60
2019-04-20T06:42:31.817Z,13.80
2019-04-20T06:45:05.308Z,13.90
2019-04-20T06:47:46.091Z,13.90
2019-04-20T07:04:04.259Z,14.80
2019-04-20T07:06:43.956Z,14.90
2019-04-20T07:15:52.195Z,15.20
2019-04-20T07:22:01.965Z,15.50
2019-04-20T07:24:35.107Z,15.60
2019-04-20T07:27:06.179Z,15.80
2019-04-20T07:29:41.153Z,16.00
2019-04-20T07:32:09.107Z,16.00
2019-04-20T07:34:51.305Z,16.00
2019-04-20T07:38:03.228Z,16.20
2019-04-20T07:40:07.439Z,16.30
2019-04-20T07:42:43.777Z,16.50
2019-04-20T07:45:24.521Z,16.70
2019-04-20T07:48:01.689Z,16.80
2019-04-20T07:53:45.076Z,17.00
2019-04-20T07:56:23.489Z,17.20
2019-04-20T07:58:47.479Z,17.30
2019-04-20T08:01:45.383Z,17.40
2019-04-20T08:04:13.553Z,17.50
2019-04-20T08:06:38.046Z,17.70
2019-04-20T08:09:18.408Z,17.80
2019-04-20T08:11:56.657Z,18.00
2019-04-20T08:14:32.359Z,18.00
2019-04-20T08:17:14.406Z,18.10
2019-04-20T08:19:30.162Z,18.20
2019-04-20T08:22:08.186Z,18.30
2019-04-20T08:24:32.721Z,18.40
2019-04-20T08:30:34.237Z,18.50
2019-04-20T08:33:24.445Z,18.70
2019-04-20T08:36:16.860Z,18.80
2019-04-20T08:39:16.973Z,18.90
2019-04-20T08:41:24.950Z,18.90
2019-04-20T08:48:28.793Z,19.20
2019-04-20T08:54:03.361Z,19.20
2019-04-20T08:56:42.395Z,19.30
2019-04-20T08:59:06.735Z,19.50
2019-04-20T09:01:39.475Z,19.50
2019-04-20T09:04:20.687Z,19.50
2019-04-20T09:07:03.262Z,19.50
2019-04-20T09:09:49.325Z,19.60
2019-04-20T09:12:32.140Z,19.60
2019-04-20T09:14:48.801Z,19.70
2019-04-20T09:17:36.903Z,19.80
2019-04-20T09:32:42.677Z,20.10
2019-04-20T09:35:19.676Z,20.20
2019-04-20T09:38:01.310Z,20.30
2019-04-20T09:40:54.301Z,20.40
2019-04-20T09:43:30.701Z,20.40
2019-04-20T09:49:49.157Z,20.70
2019-04-20T09:52:45.714Z,20.80
2019-04-20T09:55:10.761Z,20.90
2019-04-20T09:58:05.208Z,21.00
2019-04-20T10:03:52.735Z,21.70
2019-04-20T10:06:27.235Z,22.10
2019-04-20T10:09:00.421Z,22.20
2019-04-20T10:11:35.135Z,22.50
2019-04-20T10:14:08.223Z,22.70
2019-04-20T10:16:41.983Z,22.90
2019-04-20T10:19:20.577Z,23.10
2019-04-20T10:25:58.608Z,23.40
2019-04-20T10:56:11.845Z,24.90
2019-04-20T10:59:01.413Z,25.00
2019-04-20T11:02:09.969Z,25.10
2019-04-20T11:04:52.557Z,25.30
2019-04-20T11:29:42.365Z,26.60
2019-04-20T11:44:50.792Z,28.20
2019-04-20T11:55:28.642Z,29.50
2019-04-20T11:59:00.930Z,29.90
2019-04-20T12:02:45.746Z,30.30
2019-04-20T12:17:11.615Z,31.70
2019-04-20T12:20:22.785Z,32.40
2019-04-20T12:26:08.802Z,33.30
2019-04-20T12:28:40.198Z,33.50
2019-04-20T12:31:19.691Z,33.70
2019-04-20T12:34:58.433Z,33.60
2019-04-20T12:41:37.622Z,33.40
2019-04-20T12:44:35.524Z,33.00
2019-04-20T12:51:01.640Z,30.70
2019-04-20T12:53:34.826Z,29.20
2019-04-20T12:56:06.488Z,28.50
2019-04-20T12:58:37.250Z,28.00
2019-04-20T13:01:12.499Z,27.60
2019-04-20T13:03:45.811Z,27.30
2019-04-20T13:06:19.706Z,27.30
2019-04-20T13:08:53.822Z,27.10
2019-04-20T13:19:01.550Z,26.80
2019-04-20T13:22:13.021Z,26.70
2019-04-20T13:24:54.983Z,26.70
2019-04-20T13:27:34.415Z,27.30
2019-04-20T13:34:20.194Z,30.90
2019-04-20T13:37:02.323Z,34.40
2019-04-20T13:40:13.080Z,35.10
2019-04-20T13:43:14.140Z,35.80
2019-04-20T13:45:55.153Z,36.10
2019-04-20T13:48:31.020Z,37.20
2019-04-20T14:02:58.722Z,38.20
2019-04-20T14:12:37.525Z,40.70
2019-04-20T14:15:13.302Z,41.00
2019-04-20T14:17:46.830Z,41.10
2019-04-20T14:20:34.098Z,41.20
2019-04-20T14:23:10.364Z,40.40
2019-04-20T14:25:42.941Z,40.00
2019-04-20T14:28:18.685Z,38.50
2019-04-20T14:30:54.158Z,37.10
2019-04-20T14:33:26.581Z,36.10
2019-04-20T14:35:59.113Z,36.00
2019-04-20T14:41:28.453Z,37.00
2019-04-20T14:44:39.994Z,37.60
2019-04-20T14:47:43.892Z,37.50
2019-04-20T14:50:17.931Z,39.00
2019-04-20T14:52:49.397Z,40.50
2019-04-20T14:55:24.213Z,41.30
2019-04-20T15:01:25.037Z,42.50
2019-04-20T15:04:06.004Z,43.50
2019-04-20T15:06:35.831Z,43.60
2019-04-20T15:09:16.969Z,42.70
2019-04-20T15:12:14.804Z,42.40
2019-04-20T15:15:16.600Z,42.30
2019-04-20T15:21:41.775Z,42.70
2019-04-20T15:24:15.606Z,43.20
2019-04-20T15:34:51.230Z,42.30
2019-04-20T15:37:43.339Z,38.70
2019-04-20T15:40:29.134Z,36.30
2019-04-20T15:43:13.848Z,34.50
2019-04-20T15:45:43.436Z,33.20
2019-04-20T15:48:18.039Z,32.00
2019-04-20T15:50:55.994Z,31.30
2019-04-20T15:53:29.202Z,30.30
2019-04-20T15:56:04.261Z,29.70
2019-04-20T15:58:34.540Z,29.30
2019-04-20T16:01:10.263Z,29.10
2019-04-20T16:03:47.648Z,28.90
2019-04-20T16:06:21.231Z,28.80
2019-04-20T16:08:54.667Z,28.50
2019-04-20T16:11:26.929Z,28.20
2019-04-20T16:14:03.565Z,27.90
2019-04-20T16:16:56.284Z,27.90
2019-04-20T16:19:40.804Z,27.70
2019-04-20T16:22:05.980Z,27.50
2019-04-20T16:24:44.968Z,27.40
2019-04-20T16:27:41.445Z,27.30
2019-04-20T16:30:38.012Z,27.20
2019-04-20T16:33:12.410Z,27.10
2019-04-20T16:35:44.635Z,26.90
2019-04-20T16:38:22.436Z,26.80
2019-04-20T16:40:54.885Z,26.70
2019-04-20T16:43:31.962Z,26.50
2019-04-20T16:45:59.056Z,26.40
2019-04-20T16:48:30.386Z,26.40
2019-04-20T16:51:02.653Z,26.20
2019-04-20T16:53:33.489Z,26.20
2019-04-20T16:56:04.620Z,26.10
2019-04-20T16:58:35.767Z,26.10
2019-04-20T17:01:09.565Z,26.10
2019-04-20T17:03:50.245Z,25.90
2019-04-20T17:06:13.830Z,25.90
2019-04-20T17:08:46.033Z,25.80
2019-04-20T17:11:18.255Z,25.70
2019-04-20T17:13:53.351Z,25.50
2019-04-20T17:16:22.040Z,25.50
2019-04-20T17:18:52.609Z,25.60
2019-04-20T17:21:27.124Z,25.30
2019-04-20T17:23:57.555Z,25.30
2019-04-20T17:26:47.227Z,25.20
2019-04-20T17:29:22.281Z,25.10
2019-04-20T17:32:13.614Z,25.00
2019-04-20T17:35:02.082Z,24.90
2019-04-20T17:37:20.868Z,24.90
2019-04-20T17:40:19.303Z,24.90
2019-04-20T17:42:53.045Z,24.80
2019-04-20T17:45:41.493Z,24.70
2019-04-20T17:49:15.931Z,24.70
2019-04-20T17:52:32.383Z,24.60
2019-04-20T17:54:53.450Z,24.50
2019-04-20T17:58:45.980Z,24.40
2019-04-20T18:02:15.543Z,24.30
2019-04-20T18:05:44.755Z,24.10
2019-04-20T18:08:10.601Z,24.10
2019-04-20T18:10:53.205Z,24.00
2019-04-20T18:17:13.827Z,23.80
2019-04-20T18:19:45.034Z,23.60
2019-04-20T18:22:21.945Z,23.50
2019-04-20T18:25:52.651Z,23.40
2019-04-20T18:28:04.133Z,23.20
2019-04-20T18:30:50.485Z,23.10
2019-04-20T18:33:18.840Z,23.00
2019-04-20T18:35:49.514Z,22.90
2019-04-20T18:38:23.934Z,22.80
2019-04-20T18:41:02.641Z,22.60
2019-04-20T18:43:29.604Z,22.60
2019-04-20T18:46:22.851Z,22.50
2019-04-20T18:48:57.025Z,22.40
2019-04-20T18:51:12.064Z,22.30
2019-04-20T18:53:46.912Z,22.20
2019-04-20T18:56:23.681Z,22.10
2019-04-20T18:58:49.203Z,22.10
2019-04-20T19:01:27.915Z,22.00
2019-04-20T19:03:52.465Z,21.90
2019-04-20T19:06:23.483Z,21.80
2019-04-20T19:08:55.923Z,21.80
2019-04-20T19:11:28.584Z,21.70
2019-04-20T19:14:33.005Z,21.60
2019-04-20T19:17:08.966Z,21.60
2019-04-20T19:19:48.480Z,21.50
2019-04-20T19:22:17.737Z,21.40
2019-04-20T19:24:49.652Z,21.30
2019-04-20T19:27:30.273Z,21.30
2019-04-20T19:30:05.628Z,21.30
2019-04-20T19:32:39.675Z,21.20
2019-04-20T19:35:14.515Z,21.10
2019-04-20T19:37:50.265Z,21.00
2019-04-20T19:40:19.405Z,21.00
2019-04-20T19:42:59.232Z,21.00
2019-04-20T19:45:44.009Z,20.90
2019-04-20T19:48:08.762Z,20.80
2019-04-20T19:50:53.135Z,20.70
2019-04-20T19:53:24.675Z,20.70
2019-04-20T19:55:45.177Z,20.70
2019-04-20T19:58:18.841Z,20.60
2019-04-20T20:01:13.806Z,20.60
2019-04-20T20:03:56.584Z,20.50
2019-04-20T20:06:39.175Z,20.50
2019-04-20T20:10:11.029Z,20.40
2019-04-20T20:13:33.223Z,20.30
2019-04-20T20:16:30.445Z,20.20
2019-04-20T20:19:37.144Z,20.20
2019-04-20T20:22:13.187Z,20.20
2019-04-20T20:24:51.222Z,20.10
2019-04-20T20:28:27.109Z,20.10
2019-04-20T20:31:51.345Z,20.00
2019-04-20T20:38:30.526Z,19.80
2019-04-20T20:48:48.126Z,19.50
2019-04-20T20:51:54.165Z,19.30
2019-04-20T21:02:12.431Z,19.40
2019-04-20T21:04:41.755Z,19.40
2019-04-20T21:07:53.412Z,19.40
2019-04-20T21:10:44.720Z,19.30
2019-04-20T21:13:43.321Z,19.30
2019-04-20T21:16:17.228Z,19.30
2019-04-20T21:19:00.841Z,19.30
2019-04-20T21:21:32.274Z,19.30
2019-04-20T21:24:00.281Z,19.20
2019-04-20T21:26:29.578Z,19.20
2019-04-20T21:28:55.578Z,19.10
2019-04-20T21:31:28.863Z,19.00
2019-04-20T21:34:02.844Z,19.00
2019-04-20T21:36:31.782Z,19.00
2019-04-20T21:39:32.420Z,18.90
2019-04-20T21:41:40.803Z,18.90
2019-04-20T21:44:15.591Z,18.80
2019-04-20T21:46:48.807Z,18.80
2019-04-20T21:49:33.510Z,18.80
2019-04-20T21:51:57.255Z,18.70
2019-04-20T22:47:53.004Z,17.90
2019-04-20T22:50:38.714Z,17.90
2019-04-20T22:53:14.088Z,17.90
2019-04-20T22:55:58.015Z,17.80
2019-04-20T22:58:23.839Z,17.80
2019-04-20T23:00:45.274Z,17.70
2019-04-20T23:03:09.895Z,17.70
2019-04-20T23:05:40.679Z,17.70
2019-04-20T23:08:12.837Z,17.70
2019-04-20T23:10:46.866Z,17.60
2019-04-20T23:13:22.087Z,17.60
2019-04-20T23:15:55.354Z,17.50
2019-04-20T23:18:24.236Z,17.50
2019-04-20T23:21:02.705Z,17.50
2019-04-20T23:23:30.466Z,17.40
2019-04-20T23:26:01.136Z,17.40
2019-04-20T23:28:33.350Z,17.40
2019-04-20T23:31:11.902Z,17.30
